Time;durP1;ratioP1;P1;durP2;ratioP2;P2;SDS_P1;SDS_P2;PMS_P1;PMS_P2;Temp;Humidity;BMP_temperature;BMP_pressure;BME280_temperature;BME280_humidity;BME280_pressure;Samples;Min_cycle;Max_cycle;Signal;HPM_P1;HPM_P2
2022/09/12 00:01:16;;;;;;;30.73;22.30;;;;;;;13.24;100.00;101545.31;5085242;28;20017;-70
2022/09/12 00:03:42;;;;;;;30.80;23.50;;;;;;;13.20;100.00;101549.69;5082615;28;20029;-70
2022/09/12 00:06:19;;;;;;;27.77;18.88;;;;;;;13.21;100.00;101547.94;5085180;28;20382;-69
2022/09/12 00:08:45;;;;;;;27.70;19.30;;;;;;;13.27;100.00;101541.78;5082629;28;20028;-69
2022/09/12 00:11:12;;;;;;;28.17;19.27;;;;;;;13.24;100.00;101532.91;5085339;28;20042;-69
2022/09/12 00:13:39;;;;;;;28.48;19.35;;;;;;;13.22;100.00;101540.00;5082927;28;20024;-70
2022/09/12 00:16:05;;;;;;;29.23;20.42;;;;;;;13.15;100.00;101535.53;5084612;28;20379;-69
2022/09/12 00:18:31;;;;;;;29.77;20.65;;;;;;;13.20;100.00;101533.78;5083944;28;20039;-69
2022/09/12 00:21:01;;;;;;;27.60;19.98;;;;;;;13.19;100.00;101534.66;5083404;28;20482;-70
2022/09/12 00:23:26;;;;;;;27.65;19.08;;;;;;;13.14;100.00;101528.44;5083278;28;20032;-64
2022/09/12 00:25:51;;;;;;;28.25;19.63;;;;;;;13.07;100.00;101523.97;5082419;28;20589;-65
2022/09/12 00:28:18;;;;;;;27.90;19.38;;;;;;;13.02;100.00;101525.75;5085374;28;20035;-64
2022/09/12 00:30:45;;;;;;;28.27;19.38;;;;;;;12.98;100.00;101531.91;5081804;28;20036;-65
2022/09/12 00:33:11;;;;;;;27.70;18.80;;;;;;;12.93;100.00;101526.59;5085292;28;20039;-65
2022/09/12 00:35:48;;;;;;;27.70;18.45;;;;;;;12.90;100.00;101538.06;5083023;28;20467;-65
2022/09/12 00:38:15;;;;;;;28.60;18.88;;;;;;;12.79;100.00;101526.50;5085388;28;20028;-65
2022/09/12 00:40:41;;;;;;;27.23;18.42;;;;;;;12.81;100.00;101518.53;5081828;28;20497;-65
2022/09/12 00:43:28;;;;;;;26.77;17.38;;;;;;;12.79;100.00;101522.97;5084058;28;20024;-66
2022/09/12 00:45:56;;;;;;;27.45;18.08;;;;;;;12.69;100.00;101519.34;5082453;28;20032;-64
2022/09/12 00:48:32;;;;;;;27.35;18.77;;;;;;;12.64;100.00;101519.31;5084580;28;20541;-65
2022/09/12 00:50:58;;;;;;;26.67;18.40;;;;;;;12.65;100.00;101515.78;5082334;28;20024;-65
2022/09/12 00:53:24;;;;;;;26.80;17.60;;;;;;;12.60;100.00;101516.66;5084056;28;20027;-65
2022/09/12 00:55:51;;;;;;;27.35;18.83;;;;;;;12.67;100.00;101519.34;5081607;28;20475;-65
2022/09/12 00:58:31;;;;;;;28.88;19.33;;;;;;;12.59;100.00;101514.88;5084983;28;20032;-65
2022/09/12 01:00:57;;;;;;;26.85;18.58;;;;;;;12.56;100.00;101508.66;5082548;28;20050;-65
2022/09/12 01:03:23;;;;;;;27.75;18.40;;;;;;;12.49;100.00;101511.25;5084125;28;20355;-65
2022/09/12 01:06:00;;;;;;;26.88;17.38;;;;;;;12.43;100.00;101504.16;5081538;28;20099;-65
2022/09/12 01:08:27;;;;;;;27.83;18.35;;;;;;;12.38;100.00;101505.88;5083693;28;20032;-66
2022/09/12 01:10:53;;;;;;;27.02;18.33;;;;;;;12.30;100.00;101500.50;5081775;28;20025;-64
2022/09/12 01:13:19;;;;;;;27.77;18.27;;;;;;;12.34;100.00;101502.31;5084680;28;20059;-65
2022/09/12 01:15:45;;;;;;;27.33;17.63;;;;;;;12.33;100.00;101491.69;5081396;28;20056;-64
2022/09/12 01:18:31;;;;;;;26.23;16.83;;;;;;;12.20;100.00;101494.28;5084045;28;20046;-65
2022/09/12 01:21:14;;;;;;;24.77;15.10;;;;;;;12.19;100.00;101491.59;5082036;28;20038;-64
2022/09/12 01:24:53;;;;;;;28.27;17.88;;;;;;;12.14;100.00;101496.84;5081471;28;20501;-65
2022/09/12 01:27:32;;;;;;;26.85;17.80;;;;;;;12.08;100.00;101487.97;4952344;29;20042;-64
2022/09/12 01:30:22;;;;;;;28.00;18.13;;;;;;;12.10;100.00;101486.22;4952315;29;20135;-63
2022/09/12 01:33:14;;;;;;;28.63;19.80;;;;;;;12.06;100.00;101472.06;4948979;29;20117;-65
2022/09/12 01:36:37;;;;;;;28.23;19.50;;;;;;;12.06;100.00;101472.06;4951740;29;20043;-65
2022/09/12 01:39:21;;;;;;;27.57;18.63;;;;;;;12.09;100.00;101482.69;4885736;29;20131;-64
2022/09/12 01:42:14;;;;;;;29.00;19.60;;;;;;;11.93;100.00;101483.41;4887836;29;20289;-68
2022/09/12 01:44:53;;;;;;;29.02;19.77;;;;;;;11.94;100.00;101478.16;4802680;29;20154;-69
2022/09/12 01:47:38;;;;;;;29.75;19.95;;;;;;;11.98;100.00;101473.75;4803205;29;20521;-70
2022/09/12 01:50:23;;;;;;;29.17;19.92;;;;;;;11.90;100.00;101475.41;4803107;29;20469;-70
2022/09/12 01:52:55;;;;;;;28.90;20.20;;;;;;;11.81;100.00;101471.81;4803213;29;20205;-69
2022/09/12 01:55:28;;;;;;;28.55;18.88;;;;;;;11.82;100.00;101478.91;4803401;29;20050;-70
2022/09/12 01:58:11;;;;;;;27.77;18.23;;;;;;;11.81;100.00;101468.25;4815562;29;20446;-70
2022/09/12 02:00:46;;;;;;;27.30;18.55;;;;;;;11.85;100.00;101463.03;4833786;29;20068;-69
2022/09/12 02:03:16;;;;;;;29.38;19.85;;;;;;;11.83;100.00;101459.47;4880289;29;20500;-69
2022/09/12 02:05:57;;;;;;;28.40;20.20;;;;;;;11.94;100.00;101461.34;4861226;29;20123;-69
2022/09/12 02:08:41;;;;;;;29.85;19.50;;;;;;;11.93;100.00;101448.97;4880149;29;20068;-69
2022/09/12 02:11:09;;;;;;;27.75;18.48;;;;;;;11.90;100.00;101448.91;4880190;29;20055;-70
2022/09/12 02:13:46;;;;;;;28.38;19.17;;;;;;;11.85;100.00;101447.13;4957874;28;20369;-70
2022/09/12 02:16:19;;;;;;;28.65;19.02;;;;;;;11.82;100.00;101441.81;4986356;28;20047;-69
2022/09/12 02:18:51;;;;;;;29.25;19.15;;;;;;;11.74;100.00;101443.50;4987139;28;20049;-70
2022/09/12 02:21:20;;;;;;;28.67;19.08;;;;;;;11.73;100.00;101435.53;5015367;28;20502;-69
2022/09/12 02:23:49;;;;;;;27.30;17.85;;;;;;;11.68;100.00;101443.44;5064372;28;20033;-69
2022/09/12 02:26:23;;;;;;;28.50;18.52;;;;;;;11.72;100.00;101445.22;5064311;28;20028;-68
2022/09/12 02:28:48;;;;;;;27.73;18.10;;;;;;;11.75;100.00;101441.72;5063862;28;20072;-69
2022/09/12 02:31:43;;;;;;;26.67;17.50;;;;;;;11.72;100.00;101449.66;5080334;28;20072;-69
2022/09/12 02:34:20;;;;;;;29.70;18.02;;;;;;;11.70;100.00;101452.28;5002401;28;20042;-70
2022/09/12 02:36:58;;;;;;;27.63;17.95;;;;;;;11.69;100.00;101451.41;5005704;28;20559;-69
2022/09/12 02:39:23;;;;;;;27.70;18.25;;;;;;;11.59;100.00;101449.53;5005918;28;20051;-65
2022/09/12 02:41:55;;;;;;;28.70;18.15;;;;;;;11.56;100.00;101452.13;5005832;28;20018;-69
2022/09/12 02:44:22;;;;;;;29.20;18.83;;;;;;;11.57;100.00;101439.81;5005781;28;20120;-68
2022/09/12 02:46:52;;;;;;;28.67;18.65;;;;;;;11.53;100.00;101446.81;5005655;28;20040;-67
2022/09/12 02:49:18;;;;;;;28.30;18.40;;;;;;;11.56;100.00;101438.03;5002387;28;20397;-65
2022/09/12 02:51:46;;;;;;;27.70;17.95;;;;;;;11.55;100.00;101438.88;5005355;28;20034;-67
2022/09/12 02:54:14;;;;;;;27.25;17.38;;;;;;;11.53;100.00;101438.88;5002430;28;20382;-68
2022/09/12 02:56:42;;;;;;;28.55;19.58;;;;;;;11.50;100.00;101434.47;5004940;28;20037;-69
2022/09/12 02:59:10;;;;;;;28.30;18.45;;;;;;;11.49;100.00;101429.16;5002826;28;20041;-67
2022/09/12 03:01:44;;;;;;;29.13;20.00;;;;;;;11.48;100.00;101430.00;5003975;28;20056;-69
2022/09/12 03:04:51;;;;;;;33.33;18.60;;;;;;;11.47;100.00;101426.44;5002487;28;20053;-69
2022/09/12 03:07:44;;;;;;;28.75;18.65;;;;;;;11.46;100.00;101415.84;4947419;29;20039;-69
2022/09/12 03:10:10;;;;;;;28.80;18.88;;;;;;;11.40;100.00;101416.72;4962607;28;20050;-66
2022/09/12 03:12:42;;;;;;;29.52;19.55;;;;;;;11.41;100.00;101412.28;5022625;28;20056;-69
2022/09/12 03:15:08;;;;;;;;;;;;;;;11.46;100.00;101419.41;5022847;28;20034;-69
2022/09/12 03:17:45;;;;;;;29.23;19.77;;;;;;;11.45;100.00;101417.63;5023270;28;19920;-67
2022/09/12 03:21:06;;;;;;;27.98;19.35;;;;;;;11.39;100.00;101420.22;5021811;28;20038;-68
2022/09/12 03:24:17;;;;;;;27.65;18.42;;;;;;;11.40;100.00;101411.41;4916256;29;20091;-70
2022/09/12 03:26:49;;;;;;;27.27;17.33;;;;;;;11.44;100.00;101413.19;4878872;29;20033;-68
2022/09/12 03:29:17;;;;;;;28.52;18.10;;;;;;;11.40;100.00;101414.06;4878715;29;20064;-68
2022/09/12 03:31:54;;;;;;;28.85;18.02;;;;;;;11.41;100.00;101418.47;4878559;29;20169;-68
2022/09/12 03:34:21;;;;;;;29.25;20.02;;;;;;;11.41;100.00;101415.81;4872421;29;20066;-67
2022/09/12 03:36:47;;;;;;;33.13;20.95;;;;;;;11.37;100.00;101411.34;4878574;29;20053;-69
2022/09/12 03:39:13;;;;;;;30.58;19.20;;;;;;;11.35;100.00;101415.75;4878627;29;20124;-67
2022/09/12 03:41:38;;;;;;;29.77;19.98;;;;;;;11.30;100.00;101405.13;4878683;29;20037;-67
2022/09/12 03:44:04;;;;;;;28.48;18.77;;;;;;;11.37;100.00;101411.34;4878440;29;20607;-67
2022/09/12 03:46:29;;;;;;;29.95;18.67;;;;;;;11.40;100.00;101416.72;4878513;29;20041;-68
2022/09/12 03:48:54;;;;;;;28.63;19.40;;;;;;;11.37;100.00;101406.06;4878583;29;20078;-68
2022/09/12 03:51:20;;;;;;;30.15;20.23;;;;;;;11.40;100.00;101403.47;4878469;29;20032;-68
2022/09/12 03:53:45;;;;;;;29.50;19.02;;;;;;;11.36;100.00;101409.59;4874531;29;20045;-70
2022/09/12 03:56:11;;;;;;;28.58;18.33;;;;;;;11.40;100.00;101408.75;4878420;29;20071;-69
2022/09/12 03:58:37;;;;;;;28.10;18.00;;;;;;;11.40;100.00;101405.22;4889371;29;20032;-70
2022/09/12 04:01:11;;;;;;;28.73;18.88;;;;;;;11.39;100.00;101404.34;5017209;28;20033;-68
2022/09/12 04:03:44;;;;;;;29.73;19.63;;;;;;;11.36;100.00;101406.03;5068413;28;20036;-68
2022/09/12 04:06:10;;;;;;;31.73;21.08;;;;;;;11.31;100.00;101398.97;5085079;28;20029;-68
2022/09/12 04:08:37;;;;;;;31.08;20.38;;;;;;;11.26;100.00;101397.16;5083483;28;20394;-70
2022/09/12 04:11:08;;;;;;;31.58;20.27;;;;;;;11.24;100.00;101393.56;5084006;28;20157;-70
2022/09/12 04:13:35;;;;;;;29.70;19.57;;;;;;;11.28;100.00;101392.75;5084167;28;20115;-70
2022/09/12 04:16:01;;;;;;;28.35;17.63;;;;;;;11.19;100.00;101390.00;5083590;28;20105;-70
2022/09/12 04:18:26;;;;;;;26.50;16.95;;;;;;;11.16;100.00;101385.56;5084590;28;20551;-69
2022/09/12 04:20:52;;;;;;;27.73;18.52;;;;;;;11.17;100.00;101379.41;5082461;28;20027;-70
2022/09/12 04:23:18;;;;;;;29.27;19.45;;;;;;;11.18;100.00;101377.66;5085542;28;20465;-69
2022/09/12 04:25:43;;;;;;;30.05;19.63;;;;;;;11.22;100.00;101380.34;5082686;28;20051;-63
2022/09/12 04:28:08;;;;;;;30.65;20.02;;;;;;;11.28;100.00;101387.44;5083228;28;20078;-63
2022/09/12 04:30:35;;;;;;;31.90;20.70;;;;;;;11.32;100.00;101378.69;5083381;28;20047;-63
2022/09/12 04:33:00;;;;;;;31.92;21.50;;;;;;;11.33;100.00;101386.63;5083294;28;20478;-64
2022/09/12 04:35:26;;;;;;;33.08;23.10;;;;;;;11.33;100.00;101378.69;5084479;28;20024;-63
2022/09/12 04:37:51;;;;;;;31.75;21.80;;;;;;;11.30;100.00;101381.31;5081897;28;20052;-63
2022/09/12 04:40:17;;;;;;;32.17;21.55;;;;;;;11.34;100.00;101376.91;5085561;28;20060;-63
2022/09/12 04:42:43;;;;;;;32.08;22.00;;;;;;;11.36;100.00;101377.84;5082222;28;20044;-63
2022/09/12 04:45:09;;;;;;;32.20;21.77;;;;;;;11.31;100.00;101377.81;5084136;28;20437;-63
2022/09/12 04:47:35;;;;;;;33.33;21.40;;;;;;;11.32;100.00;101362.78;5083488;28;20028;-63
2022/09/12 04:50:00;;;;;;;32.65;21.83;;;;;;;11.32;100.00;101368.09;5082561;28;20024;-63
2022/09/12 04:52:25;;;;;;;32.97;21.73;;;;;;;11.34;100.00;101371.63;5084294;28;20035;-63
2022/09/12 04:54:52;;;;;;;31.45;20.73;;;;;;;11.27;100.00;101367.13;5081575;28;20463;-63
2022/09/12 04:57:17;;;;;;;32.13;21.15;;;;;;;11.25;100.00;101374.19;5085072;28;20070;-63
2022/09/12 04:59:42;;;;;;;31.52;21.20;;;;;;;11.25;100.00;101375.06;5081732;28;20024;-64
2022/09/12 05:02:08;;;;;;;34.92;22.60;;;;;;;11.26;100.00;101373.31;5083981;28;20016;-63
2022/09/12 05:04:33;;;;;;;31.60;21.45;;;;;;;11.24;100.00;101375.06;5083021;28;20020;-64
2022/09/12 05:06:59;;;;;;;30.45;21.52;;;;;;;11.27;100.00;101377.72;5082236;28;20028;-63
2022/09/12 05:09:24;;;;;;;33.17;22.35;;;;;;;11.30;100.00;101375.09;5084652;28;20035;-63
2022/09/12 05:11:49;;;;;;;33.92;22.80;;;;;;;11.36;100.00;101371.63;5081218;28;20056;-63
2022/09/12 05:14:14;;;;;;;36.00;24.48;;;;;;;11.41;100.00;101373.47;5084562;28;20059;-64
2022/09/12 05:16:40;;;;;;;36.35;24.88;;;;;;;11.41;100.00;101381.41;5082084;28;20016;-64
2022/09/12 05:19:06;;;;;;;32.83;22.60;;;;;;;11.39;100.00;101383.16;5083392;28;20021;-65
2022/09/12 05:21:31;;;;;;;35.63;23.95;;;;;;;11.40;100.00;101384.03;5083492;28;20081;-64
2022/09/12 05:24:00;;;;;;;33.25;23.13;;;;;;;11.40;100.00;101378.75;5081749;28;20020;-66
2022/09/12 05:26:26;;;;;;;34.03;23.80;;;;;;;11.43;100.00;101382.31;5084040;28;20028;-66
2022/09/12 05:28:52;;;;;;;34.53;22.67;;;;;;;11.40;100.00;101384.94;5080849;28;20111;-65
2022/09/12 05:31:22;;;;;;;36.10;23.77;;;;;;;11.46;100.00;101392.03;5084278;28;20135;-66
2022/09/12 05:33:49;;;;;;;36.30;23.75;;;;;;;11.48;100.00;101382.34;5080749;28;20032;-64
2022/09/12 05:36:29;;;;;;;35.42;23.98;;;;;;;11.50;100.00;101388.53;5080113;28;20047;-64
2022/09/12 05:38:55;;;;;;;35.38;24.98;;;;;;;11.51;100.00;101377.97;5085170;28;20063;-68
2022/09/12 05:41:25;;;;;;;35.58;24.48;;;;;;;11.56;100.00;101382.41;5084821;28;20017;-69
2022/09/12 05:43:56;;;;;;;35.90;25.08;;;;;;;11.60;100.00;101378.94;5084385;28;20035;-69
2022/09/12 05:46:24;;;;;;;36.22;24.98;;;;;;;11.63;100.00;101381.59;5087971;28;20458;-70
2022/09/12 05:48:50;;;;;;;36.08;25.15;;;;;;;11.64;100.00;101381.59;5085913;28;20110;-68
2022/09/12 05:51:21;;;;;;;35.03;25.08;;;;;;;11.64;100.00;101389.56;5087159;28;20028;-68
2022/09/12 05:53:48;;;;;;;34.30;23.95;;;;;;;11.67;100.00;101394.00;5086735;28;20032;-69
2022/09/12 05:56:17;;;;;;;35.63;23.65;;;;;;;11.73;100.00;101385.22;5084548;28;20107;-68
2022/09/12 05:58:45;;;;;;;34.92;24.73;;;;;;;11.80;100.00;101392.34;5082487;28;20028;-68
2022/09/12 06:01:13;;;;;;;36.22;24.23;;;;;;;11.81;100.00;101400.31;5084305;28;20039;-66
2022/09/12 06:03:41;;;;;;;36.78;25.17;;;;;;;11.82;100.00;101399.44;5087014;28;20031;-65
2022/09/12 06:06:06;;;;;;;34.00;24.67;;;;;;;11.89;100.00;101399.47;5083947;28;20020;-64
2022/09/12 06:08:33;;;;;;;34.60;23.55;;;;;;;11.95;100.00;101400.41;5086281;28;20039;-65
2022/09/12 06:11:03;;;;;;;35.42;25.58;;;;;;;11.96;100.00;101403.97;5084027;28;20403;-64
2022/09/12 06:13:35;;;;;;;36.28;26.27;;;;;;;11.97;100.00;101409.28;5084974;28;20059;-65
2022/09/12 06:16:13;;;;;;;36.90;26.48;;;;;;;11.94;100.00;101400.41;5085963;28;20020;-65
2022/09/12 06:18:40;;;;;;;37.92;25.33;;;;;;;11.92;100.00;101396.84;5083875;28;20439;-65
2022/09/12 06:21:08;;;;;;;35.70;23.58;;;;;;;11.86;100.00;101400.31;5086544;28;20099;-65
2022/09/12 06:23:34;;;;;;;34.35;23.98;;;;;;;11.84;100.00;101402.97;5087204;28;20020;-64
2022/09/12 06:26:00;;;;;;;35.33;24.00;;;;;;;11.83;100.00;101403.84;5086497;28;20371;-64
2022/09/12 06:28:25;;;;;;;35.28;24.98;;;;;;;11.88;100.00;101400.34;5083390;28;20028;-65
2022/09/12 06:30:51;;;;;;;36.13;24.75;;;;;;;11.88;100.00;101387.97;5086230;28;20044;-64
2022/09/12 06:33:17;;;;;;;37.83;26.48;;;;;;;11.91;100.00;101384.47;5083936;28;20024;-64
2022/09/12 06:35:43;;;;;;;35.53;25.33;;;;;;;11.98;100.00;101389.84;5088287;28;20024;-64
2022/09/12 06:38:08;;;;;;;37.88;26.63;;;;;;;12.08;100.00;101396.09;5084096;28;20028;-65
2022/09/12 06:40:39;;;;;;;36.15;25.10;;;;;;;12.11;100.00;101389.94;5087384;28;20588;-64
2022/09/12 06:43:05;;;;;;;38.88;25.73;;;;;;;12.17;100.00;101393.53;5087186;28;20113;-65
2022/09/12 06:45:30;;;;;;;35.60;24.42;;;;;;;12.25;100.00;101390.03;5085605;28;20058;-65
2022/09/12 06:47:55;;;;;;;37.08;26.33;;;;;;;12.35;100.00;101394.53;5079837;28;20150;-65
2022/09/12 06:50:21;;;;;;;37.15;26.55;;;;;;;12.45;100.00;101388.38;5091233;28;20106;-64
2022/09/12 06:52:48;;;;;;;37.08;26.10;;;;;;;12.56;100.00;101394.59;5081771;28;20024;-63
2022/09/12 06:55:13;;;;;;;38.72;27.05;;;;;;;12.65;100.00;101387.59;5087683;28;20025;-62
2022/09/12 06:57:40;;;;;;;37.08;26.38;;;;;;;12.73;100.00;101391.16;5082829;28;20016;-64
2022/09/12 07:00:06;;;;;;;37.20;25.13;;;;;;;12.83;100.00;101392.97;5083420;28;20029;-64
2022/09/12 07:02:31;;;;;;;36.97;26.30;;;;;;;12.93;100.00;101387.69;5087572;28;20020;-63
2022/09/12 07:04:57;;;;;;;36.45;26.35;;;;;;;12.96;100.00;101388.59;5090569;28;20027;-63
2022/09/12 07:07:23;;;;;;;37.00;26.48;;;;;;;13.00;100.00;101386.81;5086939;28;20434;-63
2022/09/12 07:09:48;;;;;;;37.92;26.88;;;;;;;13.06;100.00;101384.19;5090005;28;20032;-63
2022/09/12 07:12:14;;;;;;;37.97;26.40;;;;;;;13.14;100.00;101376.25;5086027;28;20075;-63
2022/09/12 07:14:40;;;;;;;35.47;26.35;;;;;;;13.21;100.00;101378.94;5088451;28;20102;-64
2022/09/12 07:17:06;;;;;;;36.80;27.23;;;;;;;13.30;100.00;101382.50;5087202;28;20060;-65
2022/09/12 07:19:31;;;;;;;37.47;27.48;;;;;;;13.41;100.00;101391.38;5090030;28;20024;-64
2022/09/12 07:21:57;;;;;;;37.05;26.73;;;;;;;13.50;100.00;101380.78;5090403;28;20385;-64
2022/09/12 07:24:22;;;;;;;38.22;27.95;;;;;;;13.56;100.00;101388.75;5083875;28;20133;-64
2022/09/12 07:26:48;;;;;;;38.97;28.30;;;;;;;13.64;100.00;101371.91;5087710;28;20431;-66
2022/09/12 07:29:15;;;;;;;37.88;27.73;;;;;;;13.72;100.00;101376.34;5076013;28;20089;-73
2022/09/12 07:31:41;;;;;;;38.33;26.80;;;;;;;13.81;100.00;101370.13;5080136;28;20524;-73
2022/09/12 07:34:07;;;;;;;36.95;26.98;;;;;;;13.90;100.00;101374.56;5086973;28;20094;-64
2022/09/12 07:36:33;;;;;;;37.38;26.45;;;;;;;14.01;100.00;101385.16;5088192;28;20028;-65
2022/09/12 07:38:58;;;;;;;35.45;25.90;;;;;;;14.10;100.00;101378.06;5087884;28;20073;-72
2022/09/12 07:41:26;;;;;;;33.42;24.02;;;;;;;14.12;100.00;101383.38;5082803;28;20422;-72
2022/09/12 07:43:57;;;;;;;33.83;24.45;;;;;;;14.21;100.00;101388.72;5086545;28;20016;-72
2022/09/12 07:46:23;;;;;;;33.00;24.27;;;;;;;14.31;100.00;101386.88;5082981;28;20060;-70
2022/09/12 07:48:50;;;;;;;35.53;25.05;;;;;;;14.49;100.00;101391.28;5085785;28;20035;-70
2022/09/12 07:51:17;;;;;;;33.95;24.48;;;;;;;14.63;100.00;101383.28;5083483;28;20028;-72
2022/09/12 07:53:42;;;;;;;33.20;23.33;;;;;;;14.76;100.00;101394.75;5084924;28;20086;-73
2022/09/12 07:56:09;;;;;;;31.92;22.67;;;;;;;14.80;100.00;101392.06;5084415;28;20024;-70
2022/09/12 07:58:36;;;;;;;32.17;22.38;;;;;;;14.91;100.00;101394.69;5083619;28;20024;-71
2022/09/12 08:01:14;;;;;;;31.23;21.92;;;;;;;14.97;100.00;101394.66;5085284;28;20016;-70
2022/09/12 08:03:40;;;;;;;30.73;21.15;;;;;;;15.05;100.00;101399.94;5084139;28;20031;-69
2022/09/12 08:06:12;;;;;;;30.85;21.17;;;;;;;15.14;100.00;101391.91;5086432;28;20072;-73
2022/09/12 08:08:38;;;;;;;30.98;21.67;;;;;;;15.28;100.00;101383.81;5084620;28;20029;-66
2022/09/12 08:11:06;;;;;;;32.30;22.02;;;;;;;15.35;100.00;101384.69;5084132;28;20019;-66
2022/09/12 08:13:33;;;;;;;32.47;22.05;;;;;;;15.47;100.00;101389.91;5083544;28;20021;-66
2022/09/12 08:16:01;;;;;;;30.17;20.23;;;;;;;15.59;100.00;101386.25;5084860;28;20107;-66
2022/09/12 08:18:27;;;;;;;30.02;20.33;;;;;;;15.75;100.00;101387.03;5082969;28;20481;-66
2022/09/12 08:21:04;;;;;;;31.00;20.90;;;;;;;15.90;100.00;101393.16;5083972;28;20027;-65
2022/09/12 08:23:30;;;;;;;29.92;20.50;;;;;;;15.98;100.00;101394.84;5081845;28;20119;-65
2022/09/12 08:26:01;;;;;;;28.88;19.90;;;;;;;16.06;100.00;101396.56;5084964;28;20032;-66
2022/09/12 08:28:29;;;;;;;29.35;19.27;;;;;;;16.13;100.00;101396.47;5082142;28;20035;-66
2022/09/12 08:31:10;;;;;;;30.00;19.52;;;;;;;16.24;100.00;101403.47;5084110;28;20052;-73
2022/09/12 08:33:36;;;;;;;27.30;17.48;;;;;;;16.36;100.00;101403.38;5083106;28;20024;-74
2022/09/12 08:36:17;;;;;;;28.25;18.77;;;;;;;16.59;100.00;101405.78;5082876;28;20026;-69
2022/09/12 08:38:44;;;;;;;27.30;18.27;;;;;;;16.81;100.00;101402.84;5084576;28;20055;-71
2022/09/12 08:41:26;;;;;;;27.50;17.85;;;;;;;16.98;100.00;101408.91;5082939;28;20020;-67
2022/09/12 08:43:58;;;;;;;;;;;;;;;17.17;100.00;101397.94;5083109;28;20059;-68
2022/09/12 08:46:32;;;;;;;27.10;17.27;;;;;;;17.72;100.00;101413.16;5082970;28;19938;-69
2022/09/12 08:49:01;;;;;;;25.98;16.38;;;;;;;18.44;100.00;101402.97;5082302;28;20057;-65
2022/09/12 08:51:28;;;;;;;25.73;16.02;;;;;;;19.25;100.00;101409.34;5078595;28;20077;-65
2022/09/12 08:53:55;;;;;;;26.48;16.30;;;;;;;19.66;100.00;101408.38;5079406;28;20178;-69
2022/09/12 08:56:21;;;;;;;24.65;14.75;;;;;;;20.36;100.00;101401.22;5080961;28;20104;-71
2022/09/12 08:58:47;;;;;;;24.90;15.10;;;;;;;20.70;100.00;101403.84;5085747;28;20063;-72
2022/09/12 09:01:37;;;;;;;23.95;14.77;;;;;;;20.94;100.00;101397.78;5084890;28;20529;-70
2022/09/12 09:04:28;;;;;;;23.48;13.88;;;;;;;21.20;100.00;101392.53;5083998;28;20032;-72
2022/09/12 09:07:12;;;;;;;23.45;13.88;;;;;;;21.98;100.00;101387.31;5085676;28;20490;-71
2022/09/12 09:09:55;;;;;;;24.30;13.63;;;;;;;22.50;100.00;101390.88;5085274;28;20027;-75
2022/09/12 09:12:38;;;;;;;22.83;13.23;;;;;;;22.63;100.00;101389.47;5082383;28;20474;-73
2022/09/12 09:15:23;;;;;;;22.50;12.18;;;;;;;22.88;100.00;101385.84;5084645;28;20036;-66
2022/09/12 09:17:54;;;;;;;21.88;11.60;;;;;;;22.61;100.00;101380.53;5084054;28;20509;-65
2022/09/12 09:20:38;;;;;;;21.67;11.05;;;;;;;22.65;100.00;101380.47;5084079;28;20024;-66
2022/09/12 09:23:16;;;;;;;21.73;11.35;;;;;;;22.94;100.00;101382.91;5083719;28;20056;-66
2022/09/12 09:25:41;;;;;;;20.63;10.68;;;;;;;23.66;100.00;101381.84;5084167;28;20024;-66
2022/09/12 09:28:29;;;;;;;22.20;11.17;;;;;;;24.28;100.00;101386.44;5085122;28;20419;-65
2022/09/12 09:30:57;;;;;;;20.85;10.05;;;;;;;24.82;100.00;101379.47;5087864;28;20321;-65
2022/09/12 09:33:27;;;;;;;19.98;9.00;;;;;;;25.12;98.72;101369.94;5086586;28;20028;-65
2022/09/12 09:35:59;;;;;;;19.40;8.82;;;;;;;24.83;99.47;101374.94;5085112;28;20055;-63
2022/09/12 09:38:46;;;;;;;19.67;8.93;;;;;;;24.47;100.00;101371.13;5087677;28;20025;-68
2022/09/12 09:41:25;;;;;;;19.48;8.95;;;;;;;24.55;97.76;101373.47;5084695;28;20024;-66
2022/09/12 09:43:51;;;;;;;19.88;9.05;;;;;;;24.54;97.35;101369.91;5083410;28;20052;-66
2022/09/12 09:46:16;;;;;;;19.80;8.10;;;;;;;24.85;94.12;101368.50;5084588;28;20077;-66
2022/09/12 09:48:46;;;;;;;19.13;8.30;;;;;;;24.85;93.60;101362.22;5088680;28;20638;-63
2022/09/12 09:51:15;;;;;;;18.70;8.30;;;;;;;25.34;90.26;101359.88;5086046;28;20031;-62
2022/09/12 09:53:49;;;;;;;20.05;8.95;;;;;;;25.60;90.33;101357.69;5087430;28;20024;-62
2022/09/12 09:56:43;;;;;;;19.30;8.57;;;;;;;26.39;90.63;101348.19;5087822;28;20181;-63
2022/09/12 09:59:24;;;;;;;19.13;7.60;;;;;;;26.81;81.50;101354.97;5084991;28;20035;-63
2022/09/12 10:02:22;;;;;;;18.27;7.72;;;;;;;26.55;81.26;101338.25;5086162;28;20032;-63
2022/09/12 10:04:56;;;;;;;18.25;7.80;;;;;;;26.91;79.00;101337.19;5036059;28;20040;-63
2022/09/12 10:07:23;;;;;;;19.65;7.95;;;;;;;27.29;77.33;101338.66;5034519;28;20090;-63
2022/09/12 10:10:09;;;;;;;19.73;8.13;;;;;;;27.55;80.81;101333.56;5033357;28;20602;-67
2022/09/12 10:12:35;;;;;;;19.00;8.23;;;;;;;27.79;66.14;101337.50;5040670;28;20116;-63
2022/09/12 10:15:15;;;;;;;17.63;6.95;;;;;;;28.60;62.93;101330.75;5040076;28;20116;-63
2022/09/12 10:17:44;;;;;;;19.77;8.43;;;;;;;28.75;50.07;101326.19;5039970;28;20028;-63
2022/09/12 10:20:28;;;;;;;20.02;7.57;;;;;;;28.49;54.70;101323.25;5040213;28;20112;-64
2022/09/12 10:22:54;;;;;;;16.95;6.50;;;;;;;28.85;47.12;101319.16;5044992;28;20105;-63
2022/09/12 10:25:20;;;;;;;19.05;6.95;;;;;;;28.60;46.63;101316.25;5045096;28;20021;-72
2022/09/12 10:27:56;;;;;;;19.23;6.75;;;;;;;29.17;48.82;101318.88;5043006;28;20052;-72
2022/09/12 10:30:26;;;;;;;17.90;6.60;;;;;;;29.94;47.02;101309.22;5045204;28;20107;-72
2022/09/12 10:32:56;;;;;;;18.48;6.32;;;;;;;30.81;40.66;101302.03;5041985;28;20037;-71
2022/09/12 10:35:24;;;;;;;18.85;6.50;;;;;;;31.39;36.28;101315.06;5045231;28;20033;-71
2022/09/12 10:37:57;;;;;;;17.63;6.18;;;;;;;30.20;39.76;101305.53;5033887;28;20084;-70
2022/09/12 10:40:30;;;;;;;17.65;6.68;;;;;;;29.48;40.87;101296.91;5045353;28;20106;-67
2022/09/12 10:43:01;;;;;;;18.55;7.43;;;;;;;28.68;43.38;101292.19;5087095;28;20514;-71
2022/09/12 10:45:27;;;;;;;17.87;6.60;;;;;;;29.37;42.88;101286.75;5083952;28;20033;-72
2022/09/12 10:47:57;;;;;;;17.60;7.15;;;;;;;30.27;39.47;101288.72;5090869;28;20020;-71
2022/09/12 10:50:26;;;;;;;18.50;6.90;;;;;;;30.81;38.89;101279.38;5084052;28;20123;-72
2022/09/12 10:52:53;;;;;;;15.65;5.70;;;;;;;32.37;36.67;101286.50;5087312;28;20020;-71
2022/09/12 10:55:25;;;;;;;16.02;5.53;;;;;;;32.50;34.80;101277.19;5083962;28;20084;-68
2022/09/12 10:57:50;;;;;;;14.35;5.50;;;;;;;33.38;33.67;101269.00;5087162;28;20029;-63
2022/09/12 11:00:19;;;;;;;15.93;5.60;;;;;;;33.43;32.96;101266.72;5083055;28;20089;-63
2022/09/12 11:03:19;;;;;;;14.50;5.57;;;;;;;32.60;35.62;101273.66;5085989;28;20753;-63
2022/09/12 11:05:54;;;;;;;17.00;6.03;;;;;;;32.53;34.88;101259.63;5021313;28;20041;-63
2022/09/12 11:08:22;;;;;;;14.13;5.10;;;;;;;33.94;32.46;101256.84;5024402;28;20543;-63
2022/09/12 11:11:06;;;;;;;15.45;5.43;;;;;;;34.46;31.93;101259.56;5021970;28;20034;-63
2022/09/12 11:14:09;;;;;;;13.95;4.65;;;;;;;34.24;33.64;101255.13;5024677;28;20520;-64
2022/09/12 11:16:44;;;;;;;14.73;4.80;;;;;;;35.39;29.93;101262.06;5023736;28;20077;-64
2022/09/12 11:19:28;;;;;;;13.52;4.70;;;;;;;35.76;28.84;101261.25;5021431;28;20032;-63
2022/09/12 11:22:17;;;;;;;15.40;5.53;;;;;;;35.72;28.47;101257.06;5021857;28;20037;-63
2022/09/12 11:25:02;;;;;;;14.48;5.43;;;;;;;34.66;30.98;101255.00;5021196;28;20041;-64